AirNav   Phillips 66 Aviation Fuel
 
 1518 users online  

44TE Shirley Williams Airport
Kingsland, Texas, USA

GOING TO KINGSLAND?


FAA INFORMATION EFFECTIVE 03 JANUARY 2019

Location

FAA Identifier: 44TE
Lat/Long: 30-41-00.6620N / 098-25-01.1040W
30-41.011033N / 098-25.018400W
30.6835172 / -98.4169733
(estimated)
Elevation: 880 ft. / 268 m (estimated)
Variation: 07E (1985)
From city: 2 miles NE of KINGSLAND, TX
Time zone: UTC -6 (UTC -5 during Daylight Saving Time)
Zip code: 78639

Airport Operations

Airport use: Private use. Permission required prior to landing
Activation date: 06/1959
Control tower: no
ARTCC: HOUSTON CENTER
FSS: SAN ANGELO FLIGHT SERVICE STATION
Attendance: UNATNDD
Wind indicator: yes
Segmented circle: no

Airport Communications

WX ASOS at BMQ (10 nm E): 119.925 (512-756-7277)
WX AWOS-3 at DZB (10 nm S): 119.775 (830-598-2059)
WX AWOS-3 at AQO (14 nm NW): 119.425 (325-247-2189)

Nearby radio navigation aids

VOR radial/distance  VOR name  Freq  Var
LLOr102/20.3LLANO VORTAC108.2008E
STVr020/32.3STONEWALL VORTAC113.8008E
AGJr200/33.3GOOCH SPRINGS VORTAC112.5005E
GRKr229/37.5GRAY VOR/DME111.8007E

Airport Services

Airframe service: NONE
Powerplant service: NONE

Runway Information

Runway 16/34

Dimensions: 2600 x 100 ft. / 792 x 30 m
Surface: turf
RUNWAY 16  RUNWAY 34
Traffic pattern: leftleft
Obstructions: treespline

Airport Ownership and Management from official FAA records

Ownership: Privately-owned
Owner: RIVER VALLEY RANCH AIR STRIP ASSOC
106 TAIL WIND LANE
KINGSLAND, TX 77863
Phone 512-827-9943
Manager: RIVER VALLEY RANCH AIR STRIP ASSOC
106 TAILWIND LN
KINGSLAND, TX 78639
Phone 512-827-9943

Airport Operational Statistics

Aircraft based on the field: 19
Single engine airplanes: 16
Ultralights: 3
    

Instrument Procedures

There are no published instrument procedures at 44TE.

Some nearby airports with instrument procedures:

KBMQ - Burnet Municipal Airport-Kate Craddock Field (10 nm E)
KAQO - Llano Municipal Airport (14 nm NW)
KRYW - Lago Vista TX - Rusty Allen Airport (26 nm SE)
KLZZ - Lampasas Airport (28 nm NE)
3R9 - Lakeway Airpark (29 nm SE)
 
Loc | Ops | Rwys | IFR | FBO | Links
Com | Nav | Svcs | Stats | Notes
Area around 44TE (Shirley Williams Airport)
 
Road maps at: MapQuest Bing Google
 
Aerial photo
WARNING: Photo may not be current or correct
Aerial photo of 44TE (Shirley Williams Airport)
Photo taken 11-Apr-2007

Do you have a better or more recent aerial photo of Shirley Williams Airport that you would like to share? If so, please send us your photo.

 
Sectional chart

 
Airport distance calculator
Flying to Shirley Williams Airport? Find the distance to fly.

From to 44TE

Sunrise and sunset
Times for 16-Jan-2019
 Local
(UTC-6)
 Zulu
(UTC)
Morning civil twilight07:0713:07
Sunrise07:3313:33
Sunset17:5423:54
Evening civil twilight18:2000:20

Current date and time
Zulu (UTC)  16-Jan-2019 19:23:50
Local (UTC-6)  16-Jan-2019 13:23:50
 
METAR
KDZB 
10nm S 
161855Z AUTO 18005KT 5SM BR OVC009 14/13 A3022 RMK AO2 T01420126
KBMQ 
10nm E 
161853Z AUTO 20007KT 7SM OVC007 13/12 A3022 RMK AO2 SLP229 T01330117
KAQO 
14nm NW 
161850Z AUTO 19006KT 10SM OVC019 19/13 A3022 RMK AO2
TAF
KGRK 
38nm NE 
161600Z 1616/1722 16009KT 4800 BR SCT007 BKN011 QNH3022INS BECMG 1617/1618 17009KT 9999 NSW BKN008 OVC012 QNH3013INS BECMG 1623/1624 16006KT 4800 BR OVC006 QNH3012INS BECMG 1701/1702 16006KT 2400 BR OVC004 QNH3016INS BECMG 1705/1706 18006KT 0800 FG OVC002 QNH3012INS BECMG 1712/1713 22009KT 2400 BR SCT002 SCT210 QNH3010INS BECMG 1715/1716 27010G15KT 9999 NSW FEW210 QNH3009INS TX16/1621Z TN10/1616Z
KAUS 
44nm SE 
161736Z 1618/1724 00000KT 2SM -DZ BR BKN005 OVC012 FM162300 16007KT 4SM BR OVC004 FM170100 VRB04KT 1SM BR OVC004 FM170900 23004KT 1/4SM FG OVC001 FM171600 26007KT 6SM BR BKN035
NOTAMs
Click for the latest NOTAMs
NOTAMs are issued by the DoD/FAA and will open in a separate window not controlled by AirNav.

 

 
 

Would you like to see your business listed on this page?

 If your business provides an interesting product or service to pilots, flight crews, aircraft, or users of the Shirley Williams Airport, you should consider listing it here.  To start the listing process, click on the button below
 
Add a business
 

Other Pages about Shirley Williams Airport

Update a link
 
Copyright © AirNav, LLC. All rights reserved. Privacy Policy  Contact